Time;durP1;ratioP1;P1;durP2;ratioP2;P2;SDS_P1;SDS_P2;PMS_P1;PMS_P2;Temp;Humidity;BMP_temperature;BMP_pressure;BME280_temperature;BME280_humidity;BME280_pressure;Samples;Min_cycle;Max_cycle;Signal;HPM_P1;HPM_P2
2023/06/02 00:01:02;;;;;;;5.15;3.10;;;15.00;99.90;;;;;;4993375;28;20208;-82
2023/06/02 00:03:33;;;;;;;9.95;3.78;;;15.50;99.90;;;;;;4993380;28;20189;-83
2023/06/02 00:06:08;;;;;;;10.38;3.40;;;14.90;99.90;;;;;;4993787;28;20647;-83
2023/06/02 00:08:36;;;;;;;6.25;3.60;;;15.30;99.90;;;;;;4994220;28;20242;-83
2023/06/02 00:11:02;;;;;;;5.90;3.42;;;15.00;99.90;;;;;;5011462;28;20224;-83
2023/06/02 00:13:28;;;;;;;6.32;3.75;;;15.10;99.90;;;;;;4980493;28;20188;-83
2023/06/02 00:15:54;;;;;;;9.48;4.57;;;15.20;99.90;;;;;;5014564;28;20169;-83
2023/06/02 00:18:20;;;;;;;8.25;3.72;;;15.10;99.90;;;;;;5014051;28;20182;-82
2023/06/02 00:20:46;;;;;;;5.75;4.07;;;;;;;;;;5029422;28;20195;-83
2023/06/02 00:23:12;;;;;;;6.60;3.60;;;15.10;99.90;;;;;;5015841;28;20288;-82
2023/06/02 00:25:39;;;;;;;6.53;3.80;;;14.90;99.90;;;;;;5014048;28;20233;-83
2023/06/02 00:28:05;;;;;;;7.78;4.03;;;15.40;99.90;;;;;;5014054;28;20561;-82
2023/06/02 00:30:31;;;;;;;9.65;3.50;;;14.90;99.90;;;;;;5014085;28;20181;-83
2023/06/02 00:32:57;;;;;;;5.63;3.75;;;14.70;99.90;;;;;;4997088;28;20173;-83
2023/06/02 00:35:23;;;;;;;6.53;4.05;;;;;;;;;;5014094;28;20252;-83
2023/06/02 00:37:48;;;;;;;9.30;4.18;;;15.00;99.90;;;;;;5014328;28;20585;-83
2023/06/02 00:40:14;;;;;;;7.80;3.58;;;;;;;;;;5014010;28;20181;-83
2023/06/02 00:42:40;;;;;;;6.40;3.95;;;;;;;;;;5014208;28;20259;-83
2023/06/02 00:45:07;;;;;;;10.85;4.63;;;14.10;99.90;;;;;;5013871;28;20178;-83
2023/06/02 00:47:33;;;;;;;6.75;3.90;;;;;;;;;;5012593;28;20244;-83
2023/06/02 00:49:59;;;;;;;11.13;4.78;;;;;;;;;;5013539;28;20180;-83
2023/06/02 00:52:25;;;;;;;6.93;4.28;;;14.30;99.90;;;;;;5014124;28;20185;-83
2023/06/02 00:54:51;;;;;;;5.53;3.50;;;;;;;;;;5013882;28;20185;-83
2023/06/02 00:57:17;;;;;;;5.20;3.53;;;14.60;99.90;;;;;;5013290;28;20690;-82
2023/06/02 00:59:47;;;;;;;7.32;4.40;;;14.50;99.90;;;;;;5013897;28;20235;-83
2023/06/02 01:02:13;;;;;;;8.43;4.32;;;;;;;;;;4996663;28;20228;-82
2023/06/02 01:04:44;;;;;;;8.57;4.32;;;14.40;99.90;;;;;;5028414;28;20501;-82
2023/06/02 01:07:13;;;;;;;9.13;4.15;;;18.40;99.90;;;;;;5013042;28;20196;-82
2023/06/02 01:09:40;;;;;;;8.27;4.18;;;14.40;99.90;;;;;;5028441;28;20177;-82
2023/06/02 01:12:06;;;;;;;7.47;4.25;;;14.80;99.90;;;;;;4996785;28;20177;-83
2023/06/02 01:14:32;;;;;;;11.13;4.35;;;;;;;;;;5013201;28;20224;-83
2023/06/02 01:16:59;;;;;;;13.75;4.70;;;14.60;99.90;;;;;;5013540;28;20268;-83
2023/06/02 01:19:26;;;;;;;11.07;4.70;;;;;;;;;;5013068;28;20207;-83
2023/06/02 01:22:01;;;;;;;11.52;5.38;;;14.00;99.90;;;;;;5013108;28;20212;-83
2023/06/02 01:24:39;;;;;;;7.78;4.47;;;14.20;99.90;;;;;;5012953;28;20231;-83
2023/06/02 01:27:12;;;;;;;9.45;4.85;;;14.00;99.90;;;;;;5013535;28;20537;-83
2023/06/02 01:29:39;;;;;;;8.48;4.30;;;14.10;99.90;;;;;;5013527;28;20538;-83
2023/06/02 01:32:20;;;;;;;8.70;4.40;;;14.20;99.90;;;;;;5013125;28;20180;-82
2023/06/02 01:34:56;;;;;;;11.50;5.10;;;13.70;99.90;;;;;;5013430;28;20173;-82
2023/06/02 01:37:24;;;;;;;10.15;4.85;;;14.10;99.90;;;;;;5013320;28;20180;-83
2023/06/02 01:39:52;;;;;;;9.73;4.78;;;14.10;99.90;;;;;;5013338;28;20185;-82
2023/06/02 01:42:19;;;;;;;6.95;4.40;;;14.10;99.90;;;;;;5013257;28;20283;-82
2023/06/02 01:44:46;;;;;;;10.10;4.53;;;;;;;;;;5028849;28;20276;-82
2023/06/02 01:47:12;;;;;;;8.02;5.78;;;;;;;;;;5013990;28;20181;-83
2023/06/02 01:49:38;;;;;;;10.85;5.13;;;;;;;;;;5013027;28;20264;-82
2023/06/02 01:52:04;;;;;;;8.10;4.65;;;;;;;;;;5013809;28;20228;-83
2023/06/02 01:54:31;;;;;;;8.30;4.00;;;13.70;99.90;;;;;;5013974;28;20178;-82
2023/06/02 01:56:56;;;;;;;11.25;4.60;;;14.40;99.90;;;;;;5012970;28;20177;-82
2023/06/02 01:59:22;;;;;;;7.50;4.15;;;;;;;;;;5012501;28;20549;-82
2023/06/02 02:01:48;;;;;;;7.80;3.92;;;;;;;;;;5012917;28;20304;-83
2023/06/02 02:04:14;;;;;;;7.70;4.38;;;13.80;99.90;;;;;;5012707;28;20718;-83
2023/06/02 02:06:42;;;;;;;9.68;3.80;;;;;;;;;;4995397;28;20322;-82
2023/06/02 02:09:07;;;;;;;9.20;4.47;;;14.10;99.90;;;;;;5012864;28;20196;-82
2023/06/02 02:11:34;;;;;;;8.15;4.28;;;13.80;99.90;;;;;;5027702;28;20185;-82
2023/06/02 02:14:00;;;;;;;6.13;3.80;;;14.20;99.90;;;;;;5012643;28;20186;-82
2023/06/02 02:16:26;;;;;;;7.75;3.15;;;14.00;99.90;;;;;;5012515;28;20642;-82
2023/06/02 02:18:56;;;;;;;7.68;4.60;;;13.60;99.90;;;;;;4996397;28;20181;-81
2023/06/02 02:21:22;;;;;;;8.43;3.67;;;13.70;99.90;;;;;;5012680;28;20209;-82
2023/06/02 02:23:48;;;;;;;7.60;3.88;;;;;;;;;;5012419;28;20268;-82
2023/06/02 02:26:13;;;;;;;5.68;4.05;;;14.10;99.90;;;;;;5015802;28;20228;-82
2023/06/02 02:28:39;;;;;;;6.78;4.00;;;;;;;;;;5016079;28;20773;-82
2023/06/02 02:31:05;;;;;;;9.50;3.63;;;13.70;99.90;;;;;;5016292;28;20217;-83
2023/06/02 02:33:31;;;;;;;8.60;4.40;;;;;;;;;;5016393;28;20192;-82
2023/06/02 02:35:57;;;;;;;11.63;4.53;;;13.50;99.90;;;;;;5015747;28;20177;-83
2023/06/02 02:38:23;;;;;;;8.45;4.07;;;;;;;;;;4998787;28;20184;-83
2023/06/02 02:40:49;;;;;;;7.88;4.10;;;13.40;99.90;;;;;;5031032;28;20647;-82
2023/06/02 02:43:15;;;;;;;6.82;4.20;;;14.10;99.90;;;;;;5015625;28;20200;-83
2023/06/02 02:45:42;;;;;;;12.93;4.65;;;;;;;;;;4982294;28;20548;-83
2023/06/02 02:48:07;;;;;;;6.32;3.97;;;14.20;99.90;;;;;;5016037;28;20312;-82
2023/06/02 02:50:34;;;;;;;10.75;4.38;;;;;;;;;;5015421;28;20272;-82
2023/06/02 02:53:01;;;;;;;5.55;3.75;;;14.10;99.90;;;;;;5015653;28;20181;-82
2023/06/02 02:55:27;;;;;;;11.23;4.95;;;;;;;;;;5015631;28;20181;-81
2023/06/02 02:57:53;;;;;;;6.75;4.18;;;13.80;99.90;;;;;;5015629;28;20205;-82
2023/06/02 03:00:19;;;;;;;9.05;4.78;;;14.20;99.90;;;;;;4998288;28;20204;-82
2023/06/02 03:02:44;;;;;;;9.10;4.72;;;13.60;99.90;;;;;;5015512;28;20267;-82
2023/06/02 03:05:13;;;;;;;8.30;4.10;;;;;;;;;;5015852;28;20181;-82
2023/06/02 03:07:39;;;;;;;13.50;4.78;;;13.90;99.90;;;;;;5015329;28;20185;-82
2023/06/02 03:10:06;;;;;;;10.55;4.72;;;14.50;99.90;;;;;;5015375;28;20634;-82
2023/06/02 03:12:32;;;;;;;7.65;3.90;;;;;;;;;;5015421;28;20193;-81
2023/06/02 03:14:58;;;;;;;7.90;4.32;;;;;;;;;;5015752;28;20205;-82
2023/06/02 03:17:24;;;;;;;10.55;4.65;;;;;;;;;;5015203;28;20557;-82
2023/06/02 03:19:50;;;;;;;9.35;4.22;;;;;;;;;;5015286;28;20181;-82
2023/06/02 03:22:16;;;;;;;11.13;4.45;;;14.10;99.90;;;;;;4997881;28;20236;-82
2023/06/02 03:24:42;;;;;;;11.65;4.65;;;;;;;;;;5015002;28;20319;-82
2023/06/02 03:27:13;;;;;;;11.55;4.07;;;14.00;99.90;;;;;;5015605;28;20272;-81
2023/06/02 03:29:39;;;;;;;11.60;4.97;;;13.90;99.90;;;;;;5023586;28;20161;-80
2023/06/02 03:32:09;;;;;;;13.05;5.00;;;14.00;99.90;;;;;;5024588;28;20201;-84
2023/06/02 03:34:36;;;;;;;11.65;4.60;;;14.20;99.90;;;;;;4999015;28;20190;-83
2023/06/02 03:37:02;;;;;;;9.30;4.57;;;;;;;;;;5005034;28;20201;-82
2023/06/02 03:39:28;;;;;;;13.95;5.30;;;;;;;;;;4981743;28;20195;-82
2023/06/02 03:41:54;;;;;;;14.25;5.28;;;;;;;;;;4975893;28;20217;-83
2023/06/02 03:44:21;;;;;;;6.80;4.05;;;;;;;;;;4992682;28;20202;-83
2023/06/02 03:46:47;;;;;;;8.95;4.80;;;;;;;;;;4976283;28;20566;-83
2023/06/02 03:49:13;;;;;;;9.10;4.82;;;;;;;;;;4993492;28;20647;-81
2023/06/02 03:51:42;;;;;;;8.88;4.93;;;;;;;;;;4992876;28;20715;-84
2023/06/02 03:54:08;;;;;;;6.65;3.67;;;;;;;;;;4993048;28;20345;-82
2023/06/02 03:56:34;;;;;;;8.93;4.60;;;;;;;;;;4993582;28;20181;-82
2023/06/02 03:59:00;;;;;;;8.40;4.22;;;;;;;;;;4961999;28;20229;-82
2023/06/02 04:01:27;;;;;;;7.93;4.35;;;;;;;;;;4973556;28;20242;-82
2023/06/02 04:03:53;;;;;;;12.30;4.63;;;;;;;;;;4990063;28;20197;-82
2023/06/02 04:06:19;;;;;;;8.70;4.40;;;;;;;;;;4993080;28;20183;-82
2023/06/02 04:08:46;;;;;;;8.23;3.47;;;;;;;;;;4993020;28;20347;-81
2023/06/02 04:11:12;;;;;;;12.80;5.15;;;;;;;;;;4992618;28;20189;-81
2023/06/02 04:13:38;;;;;;;7.55;4.18;;;;;;;;;;4993173;28;20198;-82
2023/06/02 04:16:04;;;;;;;9.05;4.80;;;;;;;;;;4983298;28;20276;-82
2023/06/02 04:18:31;;;;;;;9.23;4.55;;;14.20;99.90;;;;;;4999324;28;20205;-82
2023/06/02 04:20:57;;;;;;;6.15;4.55;;;;;;;;;;5002526;28;20257;-82
2023/06/02 04:23:23;;;;;;;14.27;4.90;;;;;;;;;;4994759;28;20325;-82
2023/06/02 04:25:50;;;;;;;11.90;5.03;;;;;;;;;;4991798;28;20977;-81
2023/06/02 04:28:16;;;;;;;12.43;4.78;;;;;;;;;;4991855;28;20685;-82
2023/06/02 04:30:42;;;;;;;24.58;4.20;;;14.30;99.90;;;;;;4992033;28;20213;-81
2023/06/02 04:33:08;;;;;;;10.82;4.35;;;;;;;;;;5009509;28;20182;-81
2023/06/02 04:35:35;;;;;;;7.32;4.03;;;13.60;99.90;;;;;;4993004;28;20189;-81
2023/06/02 04:38:02;;;;;;;8.48;4.20;;;;;;;;;;4958300;28;20993;-81
2023/06/02 04:40:29;;;;;;;10.75;4.63;;;;;;;;;;4986310;28;20228;-81
2023/06/02 04:42:54;;;;;;;10.07;4.53;;;14.10;99.90;;;;;;4991513;28;20248;-82
2023/06/02 04:45:20;;;;;;;11.02;4.95;;;;;;;;;;4978172;28;20224;-83
2023/06/02 04:47:46;;;;;;;9.10;3.85;;;;;;;;;;4982263;28;20193;-82
2023/06/02 04:50:15;;;;;;;8.98;4.78;;;;;;;;;;4991860;28;20190;-83
2023/06/02 04:52:43;;;;;;;10.98;4.20;;;14.30;99.90;;;;;;4993001;28;20190;-83
2023/06/02 04:55:09;;;;;;;8.38;4.63;;;;;;;;;;5001099;28;20183;-83
2023/06/02 04:57:36;;;;;;;15.98;4.25;;;;;;;;;;5012558;28;20178;-84
2023/06/02 05:00:06;;;;;;;6.95;4.07;;;14.40;99.90;;;;;;5027677;28;20189;-83
2023/06/02 05:02:32;;;;;;;8.52;4.10;;;;;;;;;;5013411;28;20550;-83
2023/06/02 05:04:58;;;;;;;9.18;4.72;;;;;;;;;;5013288;28;20184;-83
2023/06/02 05:07:24;;;;;;;12.90;5.22;;;;;;;;;;5013415;28;20177;-84
2023/06/02 05:09:50;;;;;;;7.05;3.55;;;;;;;;;;5012884;28;20256;-84
2023/06/02 05:12:16;;;;;;;10.57;4.20;;;;;;;;;;5013311;28;20220;-84
2023/06/02 05:14:42;;;;;;;10.18;3.80;;;;;;;;;;5028575;28;20545;-85
2023/06/02 05:17:08;;;;;;;8.93;4.28;;;;;;;;;;5012985;28;20181;-84
2023/06/02 05:19:35;;;;;;;13.32;4.35;;;;;;;;;;5013122;28;20177;-85
2023/06/02 05:22:02;;;;;;;16.58;3.75;;;14.90;99.90;;;;;;5013202;28;20221;-83
2023/06/02 05:24:28;;;;;;;7.00;4.05;;;;;;;;;;5013427;28;20225;-84
2023/06/02 05:26:54;;;;;;;15.57;4.82;;;;;;;;;;5013492;28;20192;-85
2023/06/02 05:29:20;;;;;;;10.95;3.45;;;;;;;;;;5013127;28;20181;-84
2023/06/02 05:31:46;;;;;;;7.45;4.05;;;;;;;;;;5012899;28;20185;-84
2023/06/02 05:34:12;;;;;;;7.18;4.22;;;;;;;;;;5013380;28;20587;-84
2023/06/02 05:36:38;;;;;;;7.70;4.20;;;;;;;;;;5013079;28;20259;-84
2023/06/02 05:39:04;;;;;;;7.65;4.18;;;;;;;;;;5012610;28;20267;-84
2023/06/02 05:41:30;;;;;;;8.10;3.70;;;;;;;;;;5012814;28;20332;-85
2023/06/02 05:43:56;;;;;;;10.60;4.47;;;;;;;;;;5012767;28;20180;-84
2023/06/02 05:46:23;;;;;;;19.15;5.43;;;;;;;;;;5012875;28;20185;-84
2023/06/02 05:48:49;;;;;;;14.35;4.57;;;;;;;;;;5026837;28;20181;-85
2023/06/02 05:51:15;;;;;;;8.90;4.53;;;;;;;;;;5011994;28;20236;-83
2023/06/02 05:53:41;;;;;;;10.90;4.70;;;;;;;;;;5009715;28;20186;-84
2023/06/02 05:56:07;;;;;;;6.57;4.00;;;;;;;;;;4997411;28;20216;-84
2023/06/02 05:58:37;;;;;;;15.93;4.75;;;;;;;;;;4999003;28;20193;-84
2023/06/02 06:01:03;;;;;;;11.95;4.38;;;;;;;;;;5010023;28;20244;-84
2023/06/02 06:03:29;;;;;;;11.95;5.20;;;;;;;;;;5030318;28;20192;-84
2023/06/02 06:06:20;;;;;;;14.70;6.25;;;14.50;99.90;;;;;;5016035;28;20527;-87
2023/06/02 06:08:46;;;;;;;13.23;4.82;;;;;;;;;;5001260;28;20280;-83
2023/06/02 06:11:12;;;;;;;19.88;4.70;;;13.80;99.90;;;;;;5031326;28;20600;-84
2023/06/02 06:13:38;;;;;;;12.52;5.32;;;;;;;;;;5016713;28;20215;-84
2023/06/02 06:16:04;;;;;;;12.25;5.25;;;14.40;99.90;;;;;;5016001;28;20171;-84
2023/06/02 06:18:30;;;;;;;15.68;6.45;;;14.10;99.90;;;;;;5016483;28;20276;-83
2023/06/02 06:20:56;;;;;;;16.88;4.88;;;;;;;;;;5016059;28;20283;-87
2023/06/02 06:23:22;;;;;;;12.30;5.15;;;14.00;99.90;;;;;;5016376;28;20177;-84
2023/06/02 06:25:48;;;;;;;10.55;5.82;;;13.70;99.90;;;;;;5031578;28;20255;-83
2023/06/02 06:28:13;;;;;;;15.45;5.38;;;13.70;99.90;;;;;;5016028;28;20660;-83
2023/06/02 06:30:40;;;;;;;8.55;4.47;;;;;;;;;;5017112;28;20623;-83
2023/06/02 06:33:07;;;;;;;12.75;4.80;;;14.00;99.90;;;;;;5015894;28;20174;-83
2023/06/02 06:35:32;;;;;;;9.32;4.88;;;13.60;99.90;;;;;;5015459;28;20246;-83
2023/06/02 06:37:58;;;;;;;13.68;4.88;;;13.80;99.90;;;;;;5016680;28;20178;-82
2023/06/02 06:40:24;;;;;;;12.82;5.07;;;;;;;;;;4998516;28;20181;-84
2023/06/02 06:42:49;;;;;;;9.13;4.90;;;13.70;99.90;;;;;;5015848;28;20208;-83
2023/06/02 06:45:15;;;;;;;11.50;5.40;;;14.40;99.90;;;;;;5031404;28;20181;-83
2023/06/02 06:47:41;;;;;;;14.50;4.75;;;;;;;;;;5016334;28;20189;-83
2023/06/02 06:50:07;;;;;;;19.25;5.70;;;14.50;99.90;;;;;;5015915;28;20201;-83
2023/06/02 06:52:33;;;;;;;11.35;4.20;;;;;;;;;;5015666;28;20653;-83
2023/06/02 06:54:59;;;;;;;11.23;4.82;;;;;;;;;;5016217;28;20188;-82
2023/06/02 06:57:25;;;;;;;14.82;5.82;;;;;;;;;;5030916;28;20194;-83
2023/06/02 06:59:51;;;;;;;19.88;6.38;;;14.70;99.90;;;;;;5015884;28;20684;-83
2023/06/02 07:02:17;;;;;;;15.95;5.20;;;;;;;;;;5015689;28;20209;-84
2023/06/02 07:04:43;;;;;;;10.40;5.13;;;14.30;99.90;;;;;;5016106;28;20240;-83
2023/06/02 07:07:11;;;;;;;8.85;5.43;;;14.50;99.90;;;;;;5023231;28;20166;-83
2023/06/02 07:09:37;;;;;;;8.70;5.07;;;;;;;;;;5039764;28;20192;-84
2023/06/02 07:12:03;;;;;;;10.40;5.60;;;;;;;;;;5030734;28;20213;-83
2023/06/02 07:14:29;;;;;;;10.65;3.88;;;14.40;99.90;;;;;;5016642;28;20607;-83
2023/06/02 07:16:55;;;;;;;10.50;4.03;;;;;;;;;;5017225;28;20188;-83
2023/06/02 07:19:21;;;;;;;9.10;4.53;;;15.00;99.90;;;;;;5016103;28;20186;-83
2023/06/02 07:21:47;;;;;;;9.98;4.22;;;;;;;;;;5015829;28;20219;-83
2023/06/02 07:24:14;;;;;;;11.82;4.88;;;;;;;;;;5015694;28;20268;-84
2023/06/02 07:26:41;;;;;;;8.98;4.38;;;15.20;99.90;;;;;;5015943;28;20181;-84
2023/06/02 07:29:06;;;;;;;10.75;4.55;;;14.80;99.90;;;;;;5015778;28;20236;-84
2023/06/02 07:31:32;;;;;;;7.57;4.13;;;;;;;;;;5016008;28;20185;-84
2023/06/02 07:33:58;;;;;;;5.88;4.00;;;;;;;;;;5032716;28;20283;-84
2023/06/02 07:36:25;;;;;;;8.32;4.68;;;;;;;;;;5019302;28;20177;-84
2023/06/02 07:38:51;;;;;;;9.35;3.53;;;;;;;;;;4988857;28;20185;-84
2023/06/02 07:41:17;;;;;;;7.70;4.35;;;15.50;99.90;;;;;;5019436;28;20296;-84
2023/06/02 07:43:42;;;;;;;15.60;4.10;;;15.50;99.90;;;;;;5018858;28;20216;-84
2023/06/02 07:46:08;;;;;;;12.68;4.25;;;16.00;99.90;;;;;;5001464;28;20692;-84
2023/06/02 07:48:34;;;;;;;7.18;3.90;;;15.60;99.90;;;;;;5000442;28;20181;-84
2023/06/02 07:51:00;;;;;;;8.45;4.15;;;15.90;99.90;;;;;;4998496;28;20178;-84
2023/06/02 07:53:26;;;;;;;9.60;4.53;;;16.00;99.90;;;;;;4997378;28;20191;-85
2023/06/02 07:55:51;;;;;;;10.52;3.97;;;16.10;99.90;;;;;;5015005;28;20173;-84
2023/06/02 07:58:17;;;;;;;15.52;4.90;;;16.20;99.90;;;;;;4996892;28;20185;-84
2023/06/02 08:00:42;;;;;;;9.30;4.65;;;16.30;99.90;;;;;;5020458;28;20257;-85
2023/06/02 08:03:08;;;;;;;12.43;3.85;;;16.40;99.90;;;;;;5019296;28;20296;-84
2023/06/02 08:05:34;;;;;;;7.07;3.63;;;16.50;99.90;;;;;;5030301;28;20188;-85
2023/06/02 08:08:00;;;;;;;8.32;3.55;;;16.40;99.90;;;;;;5017221;28;20181;-84
2023/06/02 08:10:25;;;;;;;10.35;3.58;;;16.50;99.90;;;;;;5034449;28;20207;-84
2023/06/02 08:12:51;;;;;;;11.05;3.50;;;16.40;99.90;;;;;;4999480;28;20192;-84
2023/06/02 08:15:17;;;;;;;7.40;3.90;;;16.40;99.90;;;;;;5002759;28;20188;-83
2023/06/02 08:17:43;;;;;;;5.80;3.80;;;;;;;;;;4996615;28;20246;-84
2023/06/02 08:20:08;;;;;;;7.53;4.13;;;16.40;99.90;;;;;;5012930;28;20260;-83
2023/06/02 08:22:36;;;;;;;7.68;3.85;;;16.30;99.90;;;;;;5012856;28;20227;-84
2023/06/02 08:25:02;;;;;;;7.07;3.78;;;16.40;99.90;;;;;;5014614;28;20232;-84
2023/06/02 08:27:28;;;;;;;11.15;4.15;;;16.50;99.90;;;;;;5014362;28;20256;-84
2023/06/02 08:29:56;;;;;;;8.77;4.68;;;16.70;99.90;;;;;;5013939;28;20212;-83
2023/06/02 08:32:22;;;;;;;12.07;4.05;;;16.60;99.90;;;;;;5013061;28;20223;-84
2023/06/02 08:34:54;;;;;;;14.98;4.70;;;16.70;99.90;;;;;;5028315;28;20588;-84
2023/06/02 08:37:21;;;;;;;9.52;4.85;;;16.80;99.90;;;;;;5028186;28;20264;-83
2023/06/02 08:39:48;;;;;;;12.23;5.55;;;16.90;99.90;;;;;;5008278;28;20181;-85
2023/06/02 08:42:15;;;;;;;7.40;4.93;;;16.90;99.90;;;;;;5016106;28;20213;-84
2023/06/02 08:44:42;;;;;;;9.85;4.38;;;17.10;99.90;;;;;;5014847;28;20181;-84
2023/06/02 08:47:11;;;;;;;8.80;4.43;;;17.10;99.90;;;;;;4997086;28;20331;-84
2023/06/02 08:49:41;;;;;;;7.85;4.68;;;17.10;99.90;;;;;;5013714;28;20181;-84
2023/06/02 08:52:11;;;;;;;9.75;4.57;;;16.70;99.90;;;;;;5013460;28;20174;-85
2023/06/02 08:54:40;;;;;;;9.07;4.18;;;17.60;99.90;;;;;;5013037;28;20183;-84
2023/06/02 08:57:06;;;;;;;7.63;4.03;;;17.00;99.90;;;;;;5009757;28;20184;-86
2023/06/02 08:59:32;;;;;;;9.30;3.90;;;16.80;99.90;;;;;;4994781;28;20181;-84
2023/06/02 09:02:00;;;;;;;18.10;3.92;;;16.90;99.90;;;;;;5012475;28;20204;-84
2023/06/02 09:04:26;;;;;;;8.45;4.00;;;17.10;99.90;;;;;;4995014;28;20186;-84
2023/06/02 09:07:13;;;;;;;6.10;3.35;;;17.30;99.90;;;;;;5012018;28;20201;-85
2023/06/02 09:09:40;;;;;;;7.90;3.30;;;17.40;99.90;;;;;;5011278;28;20286;-85
2023/06/02 09:12:08;;;;;;;10.82;3.70;;;17.60;99.90;;;;;;5012611;28;20181;-85
2023/06/02 09:14:35;;;;;;;6.05;3.25;;;17.90;99.90;;;;;;5027341;28;20599;-85
2023/06/02 09:17:01;;;;;;;5.95;3.40;;;17.90;99.90;;;;;;5012300;28;20264;-85
2023/06/02 09:19:26;;;;;;;7.95;3.22;;;17.70;99.90;;;;;;5012233;28;20267;-85
2023/06/02 09:21:53;;;;;;;8.23;4.18;;;;;;;;;;5013044;28;20209;-85
2023/06/02 09:24:32;;;;;;;10.15;3.42;;;17.80;99.90;;;;;;5028572;28;20229;-85
2023/06/02 09:26:58;;;;;;;11.15;3.05;;;17.90;99.10;;;;;;5014622;28;20275;-86
2023/06/02 09:29:24;;;;;;;10.70;3.08;;;18.10;97.80;;;;;;5012997;28;20280;-85
2023/06/02 09:31:52;;;;;;;7.35;3.50;;;18.00;97.90;;;;;;5028168;28;20713;-86
2023/06/02 09:34:19;;;;;;;7.50;3.13;;;18.00;98.20;;;;;;5015057;28;20173;-86
2023/06/02 09:36:51;;;;;;;7.60;2.70;;;17.80;98.40;;;;;;5017488;28;20177;-85
2023/06/02 09:39:35;;;;;;;6.05;2.80;;;18.50;99.90;;;;;;5017076;28;20173;-86
2023/06/02 09:42:02;;;;;;;24.33;3.30;;;18.30;99.90;;;;;;5016817;28;20215;-84
2023/06/02 09:44:28;;;;;;;4.22;3.20;;;18.20;99.90;;;;;;5016819;28;20618;-86
2023/06/02 09:46:53;;;;;;;7.55;3.30;;;17.30;99.30;;;;;;5016818;28;20184;-84
2023/06/02 09:49:20;;;;;;;5.22;2.40;;;;;;;;;;5016865;28;20432;-84
2023/06/02 09:51:46;;;;;;;11.32;3.70;;;17.60;99.90;;;;;;5016995;28;20184;-84
2023/06/02 09:54:11;;;;;;;5.85;3.30;;;17.40;98.40;;;;;;4998912;28;20235;-84
2023/06/02 09:56:38;;;;;;;14.10;4.18;;;17.50;98.30;;;;;;4998710;28;20185;-85
2023/06/02 09:59:07;;;;;;;9.32;5.20;;;17.50;98.80;;;;;;5015401;28;20189;-83
2023/06/02 10:01:37;;;;;;;6.70;4.65;;;17.60;99.70;;;;;;5015441;28;20217;-84
2023/06/02 10:04:04;;;;;;;8.63;4.68;;;17.60;99.90;;;;;;5016433;28;20906;-86
2023/06/02 10:06:37;;;;;;;11.15;5.93;;;17.70;99.90;;;;;;5012157;28;20256;-85
2023/06/02 10:09:31;;;;;;;7.13;4.60;;;17.70;99.90;;;;;;5016773;28;20219;-85
2023/06/02 10:12:02;;;;;;;9.65;5.07;;;17.90;99.70;;;;;;5018222;28;20264;-85
2023/06/02 10:14:49;;;;;;;9.95;6.32;;;17.20;99.90;;;;;;5020100;28;20177;-84
2023/06/02 10:18:12;;;;;;;9.77;5.40;;;17.50;99.90;;;;;;5014806;28;20169;-85
2023/06/02 10:21:08;;;;;;;14.65;5.47;;;16.90;99.90;;;;;;4962185;28;20180;-85
2023/06/02 10:23:40;;;;;;;11.93;5.35;;;17.70;99.90;;;;;;4943430;29;20199;-85
2023/06/02 10:26:27;;;;;;;8.60;5.35;;;17.50;99.90;;;;;;4998813;28;20252;-84
2023/06/02 10:28:54;;;;;;;10.68;5.15;;;17.70;99.90;;;;;;5015836;28;20173;-84
2023/06/02 10:31:30;;;;;;;10.48;4.28;;;18.10;99.40;;;;;;5032010;28;20239;-83
2023/06/02 10:33:58;;;;;;;6.55;3.65;;;18.50;99.90;;;;;;5016457;28;20630;-85
2023/06/02 10:36:24;;;;;;;12.52;4.38;;;17.40;99.90;;;;;;5016280;28;20196;-85
2023/06/02 10:38:50;;;;;;;7.15;4.38;;;;;;;;;;5032182;28;20545;-85
2023/06/02 10:42:00;;;;;;;5.72;4.03;;;17.50;98.30;;;;;;5016883;28;20205;-85
2023/06/02 10:44:25;;;;;;;8.50;3.40;;;17.60;99.00;;;;;;5033965;28;20235;-85
2023/06/02 10:47:19;;;;;;;6.40;4.07;;;17.90;97.70;;;;;;5035943;28;20181;-85
2023/06/02 10:49:55;;;;;;;6.18;3.20;;;18.20;99.90;;;;;;5037535;28;20192;-84
2023/06/02 10:52:21;;;;;;;10.13;3.83;;;17.60;95.10;;;;;;5021157;28;20160;-86
2023/06/02 10:55:13;;;;;;;6.38;3.33;;;17.90;99.90;;;;;;5011122;28;20173;-85
2023/06/02 10:58:06;;;;;;;8.00;4.25;;;17.60;96.40;;;;;;5042148;28;20181;-83
2023/06/02 11:00:43;;;;;;;15.80;6.10;;;17.70;99.90;;;;;;5018060;28;20216;-85
2023/06/02 11:03:14;;;;;;;8.02;4.43;;;17.30;96.40;;;;;;5016577;28;20212;-84
2023/06/02 11:05:41;;;;;;;6.72;4.13;;;17.40;96.20;;;;;;5016163;28;20185;-84
2023/06/02 11:08:14;;;;;;;6.20;3.78;;;17.30;97.20;;;;;;5031573;28;20634;-84
2023/06/02 11:10:46;;;;;;;11.85;3.08;;;17.40;96.80;;;;;;5016101;28;20192;-84
2023/06/02 11:13:13;;;;;;;10.93;4.35;;;17.50;95.80;;;;;;5016060;28;20185;-83
2023/06/02 11:16:00;;;;;;;6.38;4.35;;;17.50;99.90;;;;;;5015837;28;20185;-83
2023/06/02 11:18:28;;;;;;;9.38;4.57;;;17.40;96.50;;;;;;5015521;28;20181;-84
2023/06/02 11:21:20;;;;;;;10.40;4.57;;;17.30;96.90;;;;;;5031110;28;20704;-84
2023/06/02 11:23:46;;;;;;;9.30;5.00;;;17.50;99.90;;;;;;5015308;28;20181;-83
2023/06/02 11:26:19;;;;;;;10.13;5.20;;;16.90;97.50;;;;;;4998273;28;20236;-82
2023/06/02 11:28:45;;;;;;;9.50;5.75;;;16.20;99.90;;;;;;5016121;28;20174;-83
2023/06/02 11:31:12;;;;;;;10.07;5.03;;;16.70;99.10;;;;;;5031331;28;20181;-83
2023/06/02 11:33:39;;;;;;;12.55;4.75;;;16.50;99.90;;;;;;5015966;28;20283;-83
2023/06/02 11:36:08;;;;;;;9.40;4.85;;;17.10;99.90;;;;;;5015785;28;20188;-85
2023/06/02 11:38:35;;;;;;;8.15;3.53;;;16.90;99.90;;;;;;5015535;28;20181;-82
2023/06/02 11:41:11;;;;;;;6.57;2.97;;;16.60;99.90;;;;;;5015970;28;20177;-83
2023/06/02 11:43:37;;;;;;;10.95;4.25;;;16.40;99.90;;;;;;5014948;28;20173;-83
2023/06/02 11:46:08;;;;;;;5.18;3.42;;;16.00;99.90;;;;;;5015961;28;20177;-83
2023/06/02 11:48:38;;;;;;;5.30;2.95;;;15.30;99.90;;;;;;5016701;28;20272;-84
2023/06/02 11:51:04;;;;;;;5.20;3.28;;;15.90;99.90;;;;;;5015098;28;20177;-85
2023/06/02 11:53:30;;;;;;;11.13;3.58;;;16.20;99.90;;;;;;4998478;28;20541;-83
2023/06/02 11:55:56;;;;;;;10.15;4.38;;;;;;;;;;5015739;28;20181;-86
2023/06/02 11:58:26;;;;;;;6.78;3.42;;;15.90;99.90;;;;;;5015262;28;20178;-86
2023/06/02 12:00:53;;;;;;;5.80;3.13;;;15.80;99.90;;;;;;5016663;28;20284;-86
2023/06/02 12:03:19;;;;;;;8.35;3.05;;;15.20;99.90;;;;;;5015930;28;20237;-83
2023/06/02 12:05:47;;;;;;;6.55;3.58;;;;;;;;;;4998079;28;20196;-84
2023/06/02 12:08:22;;;;;;;8.55;3.55;;;15.00;99.90;;;;;;5015396;28;20665;-84
2023/06/02 12:10:48;;;;;;;13.43;4.55;;;16.00;99.90;;;;;;5007778;28;20193;-85
2023/06/02 12:13:31;;;;;;;6.38;3.25;;;15.40;99.90;;;;;;4999398;28;20174;-86
2023/06/02 12:16:20;;;;;;;9.60;3.50;;;15.40;99.90;;;;;;4960776;28;20183;-85
2023/06/02 12:18:54;;;;;;;7.43;3.93;;;15.40;99.90;;;;;;5104817;27;1292768;-84
2023/06/02 12:21:26;;;;;;;7.25;3.88;;;15.30;99.90;;;;;;5122073;28;20519;-85
2023/06/02 12:23:53;;;;;;;10.82;4.43;;;15.20;99.90;;;;;;5125449;27;20197;-85
2023/06/02 12:26:19;;;;;;;8.25;4.25;;;15.20;99.90;;;;;;5122087;27;20166;-86
2023/06/02 12:28:46;;;;;;;8.98;3.30;;;15.00;99.90;;;;;;5120444;28;20185;-85
2023/06/02 12:31:12;;;;;;;6.38;3.58;;;15.10;99.90;;;;;;5122331;28;20174;-86
2023/06/02 12:33:40;;;;;;;7.93;3.88;;;15.00;99.90;;;;;;5123691;27;20173;-84
2023/06/02 12:36:07;;;;;;;5.93;3.92;;;15.00;99.90;;;;;;5104241;28;20209;-85
2023/06/02 12:38:34;;;;;;;6.32;3.35;;;15.10;99.90;;;;;;5121091;28;20204;-85
2023/06/02 12:41:00;;;;;;;6.95;3.78;;;15.10;99.90;;;;;;5116901;28;20186;-85
2023/06/02 12:43:25;;;;;;;11.10;4.13;;;15.00;99.90;;;;;;5103408;28;20176;-85
2023/06/02 12:45:52;;;;;;;6.05;4.00;;;15.00;99.90;;;;;;5127908;28;20178;-85
2023/06/02 12:48:18;;;;;;;7.97;3.90;;;15.10;99.90;;;;;;5133447;27;20176;-85
2023/06/02 12:50:43;;;;;;;9.00;4.35;;;15.10;99.90;;;;;;5132651;28;20266;-85
2023/06/02 12:53:09;;;;;;;9.05;4.00;;;15.20;99.90;;;;;;5116072;28;20170;-85
2023/06/02 12:55:35;;;;;;;9.18;3.75;;;15.10;99.90;;;;;;5115396;28;20192;-85
2023/06/02 12:58:01;;;;;;;8.07;3.63;;;;;;;;;;5132949;28;20207;-86
2023/06/02 13:00:26;;;;;;;9.20;3.75;;;15.30;99.90;;;;;;5131566;28;20318;-86
2023/06/02 13:02:52;;;;;;;5.85;4.05;;;;;;;;;;5131815;28;20181;-86
2023/06/02 13:05:18;;;;;;;8.82;3.83;;;15.60;99.90;;;;;;5131785;28;20181;-85
2023/06/02 13:07:44;;;;;;;7.32;3.72;;;15.80;99.90;;;;;;5130927;28;20173;-86
2023/06/02 13:10:11;;;;;;;9.48;4.95;;;16.20;99.90;;;;;;5132024;28;20173;-85
2023/06/02 13:12:38;;;;;;;6.35;4.25;;;16.40;99.90;;;;;;5132427;28;20173;-87
2023/06/02 13:15:05;;;;;;;9.20;4.35;;;16.70;99.90;;;;;;5131135;28;20626;-85
2023/06/02 13:17:32;;;;;;;6.20;4.25;;;16.60;99.90;;;;;;5132266;28;20243;-84
2023/06/02 13:19:58;;;;;;;8.02;4.03;;;16.70;99.90;;;;;;5134206;27;20174;-84
2023/06/02 13:22:26;;;;;;;5.60;4.03;;;16.60;99.90;;;;;;5107704;28;20188;-83
2023/06/02 13:24:51;;;;;;;7.60;4.25;;;16.80;99.90;;;;;;5107474;28;20186;-84